Time;durP1;ratioP1;P1;durP2;ratioP2;P2;SDS_P1;SDS_P2;PMS_P1;PMS_P2;Temp;Humidity;BMP_temperature;BMP_pressure;BME280_temperature;BME280_humidity;BME280_pressure;Samples;Min_cycle;Max_cycle;Signal;HPM_P1;HPM_P2
2022/05/05 00:01:36;;;;;;;14.30;8.02;;;;;;;;;;5263773;28;20034;-69
2022/05/05 00:04:08;;;;;;;12.35;8.05;;;;;;;;;;5263778;28;20369;-69
2022/05/05 00:06:39;;;;;;;13.18;7.40;;;;;;;;;;5263484;28;20162;-70
2022/05/05 00:09:10;;;;;;;11.23;7.63;;;;;;;;;;5263921;28;20428;-69
2022/05/05 00:14:31;;;;;;;10.82;7.05;;;;;;;;;;5262654;28;20041;-70
2022/05/05 00:17:04;;;;;;;12.02;6.78;;;;;;;;;;5263937;28;20037;-69
2022/05/05 00:19:36;;;;;;;11.57;7.38;;;;;;;;;;5263929;28;20465;-69
2022/05/05 00:22:07;;;;;;;13.43;8.07;;;;;;;;;;5262953;28;20028;-69
2022/05/05 00:24:39;;;;;;;16.98;8.27;;;;;;;;;;5263475;28;20029;-69
2022/05/05 00:27:10;;;;;;;11.43;8.43;;;;;;;;;;5263250;28;20475;-69
2022/05/05 00:29:41;;;;;;;12.63;7.60;;;;;;;;;;5263016;28;20017;-69
2022/05/05 00:32:12;;;;;;;11.88;7.75;;;;;;;;;;5263596;28;20459;-69
2022/05/05 00:34:44;;;;;;;14.70;8.18;;;;;;;;;;5262487;28;20263;-69
2022/05/05 00:37:15;;;;;;;12.60;7.70;;;;;;;;;;5263040;28;20551;-69
2022/05/05 00:39:46;;;;;;;13.27;8.02;;;;;;;;;;5263273;28;20312;-69
2022/05/05 00:42:17;;;;;;;13.02;7.65;;;;;;;;;;5262735;28;20270;-69
2022/05/05 00:44:48;;;;;;;11.40;8.25;;;;;;;;;;5263413;28;20023;-69
2022/05/05 00:47:20;;;;;;;13.90;8.32;;;;;;;;;;5262788;28;20167;-69
2022/05/05 00:49:52;;;;;;;10.13;7.88;;;;;;;;;;5262359;28;20377;-68
2022/05/05 00:52:23;;;;;;;11.02;7.15;;;;;;;;;;5262781;28;20021;-69
2022/05/05 00:54:55;;;;;;;12.02;7.63;;;;;;;;;;5263326;28;20111;-69
2022/05/05 00:57:26;;;;;;;13.60;7.63;;;;;;;;;;5261433;28;20306;-69
2022/05/05 00:59:59;;;;;;;14.38;7.72;;;;;;;;;;5263046;28;20384;-70
2022/05/05 01:02:34;;;;;;;12.50;7.57;;;;;;;;;;5261573;28;20464;-70
2022/05/05 01:05:05;;;;;;;13.60;7.65;;;;;;;;;;5262652;28;20028;-70
2022/05/05 01:07:37;;;;;;;13.82;8.10;;;;;;;;;;5262546;28;20021;-70
2022/05/05 01:10:09;;;;;;;11.18;7.38;;;;;;;;;;5261798;28;20028;-70
2022/05/05 01:12:40;;;;;;;11.90;7.82;;;;;;;;;;5262360;28;20029;-69
2022/05/05 01:15:11;;;;;;;11.13;8.10;;;;;;;;;;5262419;28;20086;-68
2022/05/05 01:17:43;;;;;;;14.00;7.60;;;;;;;;;;5261292;28;20092;-68
2022/05/05 01:20:16;;;;;;;11.80;8.50;;;;;;;;;;5262224;28;20025;-69
2022/05/05 01:22:47;;;;;;;13.43;8.02;;;;;;;;;;5262122;28;20489;-70
2022/05/05 01:28:10;;;;;;;11.32;7.22;;;;;;;;;;5262372;28;20043;-69
2022/05/05 01:30:42;;;;;;;11.55;7.88;;;;;;;;;;5261550;28;20021;-69
2022/05/05 01:33:15;;;;;;;14.57;7.90;;;;;;;;;;5262076;28;20013;-69
2022/05/05 01:35:47;;;;;;;10.95;7.85;;;;;;;;;;5261995;28;20025;-69
2022/05/05 01:38:19;;;;;;;8.43;6.93;;;;;;;;;;5260852;28;20353;-69
2022/05/05 01:40:50;;;;;;;15.32;7.55;;;;;;;;;;5262136;28;20132;-68
2022/05/05 01:43:22;;;;;;;11.85;7.43;;;;;;;;;;5261727;28;20147;-69
2022/05/05 01:45:53;;;;;;;12.35;7.50;;;;;;;;;;5261426;28;20021;-69
2022/05/05 01:48:24;;;;;;;13.23;8.07;;;;;;;;;;5261391;28;20052;-69
2022/05/05 01:50:56;;;;;;;11.90;8.02;;;;;;;;;;5262090;28;20271;-69
2022/05/05 01:53:27;;;;;;;13.40;8.02;;;;;;;;;;5260463;28;20025;-69
2022/05/05 01:55:58;;;;;;;15.27;7.68;;;;;;;;;;5261895;28;20485;-69
2022/05/05 01:58:29;;;;;;;11.18;7.88;;;;;;;;;;5261088;28;20118;-70
2022/05/05 02:01:00;;;;;;;8.90;6.82;;;;;;;;;;5261068;28;20029;-68
2022/05/05 02:03:32;;;;;;;12.50;7.72;;;;;;;;;;5261894;28;20287;-69
2022/05/05 02:06:03;;;;;;;12.15;7.55;;;;;;;;;;5260913;28;20024;-68
2022/05/05 02:08:35;;;;;;;14.00;8.23;;;;;;;;;;5261712;28;20025;-70
2022/05/05 02:11:06;;;;;;;13.30;8.70;;;;;;;;;;5261360;28;20025;-69
2022/05/05 02:13:37;;;;;;;13.75;8.02;;;;;;;;;;5260791;28;20057;-69
2022/05/05 02:16:09;;;;;;;11.27;8.30;;;;;;;;;;5261927;28;20279;-71
2022/05/05 02:18:40;;;;;;;12.00;7.22;;;;;;;;;;5261235;28;20017;-69
2022/05/05 02:21:11;;;;;;;13.50;8.32;;;;;;;;;;5260600;28;20363;-70
2022/05/05 02:23:42;;;;;;;12.63;7.68;;;;;;;;;;5261305;28;20276;-70
2022/05/05 02:26:13;;;;;;;9.45;7.40;;;;;;;;;;5261378;28;20368;-70
2022/05/05 02:28:44;;;;;;;10.07;7.70;;;;;;;;;;5260860;28;20268;-70
2022/05/05 02:31:16;;;;;;;10.25;7.55;;;;;;;;;;5261440;28;20267;-71
2022/05/05 02:33:47;;;;;;;10.57;7.60;;;;;;;;;;5260972;28;20326;-70
2022/05/05 02:39:08;;;;;;;9.95;7.10;;;;;;;;;;5261150;28;20017;-70
2022/05/05 02:41:39;;;;;;;13.23;8.25;;;;;;;;;;5260251;28;20021;-72
2022/05/05 02:44:11;;;;;;;11.38;6.80;;;;;;;;;;5261337;28;20749;-70
2022/05/05 02:46:42;;;;;;;12.15;8.45;;;;;;;;;;5261066;28;20278;-70
2022/05/05 02:49:14;;;;;;;10.85;7.85;;;;;;;;;;5260206;28;20013;-70
2022/05/05 02:51:45;;;;;;;12.90;8.13;;;;;;;;;;5260818;28;20279;-70
2022/05/05 02:57:06;;;;;;;8.98;7.15;;;;;;;;;;5259797;28;20319;-70
2022/05/05 02:59:37;;;;;;;11.13;7.50;;;;;;;;;;5260835;28;20820;-70
2022/05/05 03:02:08;;;;;;;11.50;6.82;;;;;;;;;;5259927;28;20099;-69
2022/05/05 03:04:40;;;;;;;9.02;7.28;;;;;;;;;;5260445;28;20258;-68
2022/05/05 03:07:11;;;;;;;9.88;7.53;;;;;;;;;;5260387;28;20070;-68
2022/05/05 03:09:43;;;;;;;14.82;8.60;;;;;;;;;;5259669;28;20025;-69
2022/05/05 03:12:14;;;;;;;14.90;8.90;;;;;;;;;;5260633;28;20055;-68
2022/05/05 03:14:46;;;;;;;13.23;7.68;;;;;;;;;;5260584;28;20226;-68
2022/05/05 03:17:17;;;;;;;12.52;7.95;;;;;;;;;;5259629;28;20782;-69
2022/05/05 03:19:49;;;;;;;10.48;7.53;;;;;;;;;;5260376;28;20021;-69
2022/05/05 03:22:20;;;;;;;12.65;7.97;;;;;;;;;;5260086;28;20119;-69
2022/05/05 03:24:51;;;;;;;13.05;7.97;;;;;;;;;;5260443;28;20021;-69
2022/05/05 03:27:23;;;;;;;11.27;7.88;;;;;;;;;;5260306;28;20275;-69
2022/05/05 03:29:54;;;;;;;9.88;8.05;;;;;;;;;;5260042;28;20268;-69
2022/05/05 03:32:25;;;;;;;14.88;7.80;;;;;;;;;;5259046;28;20025;-69
2022/05/05 03:34:56;;;;;;;11.32;8.32;;;;;;;;;;5260909;28;20638;-69
2022/05/05 03:37:28;;;;;;;13.52;8.18;;;;;;;;;;5259341;28;21135;-69
2022/05/05 03:39:59;;;;;;;12.48;8.02;;;;;;;;;;5260586;28;20263;-70
2022/05/05 03:42:30;;;;;;;13.63;7.90;;;;;;;;;;5259655;28;20096;-69
2022/05/05 03:45:02;;;;;;;14.73;8.48;;;;;;;;;;5259287;28;20365;-70
2022/05/05 03:47:33;;;;;;;13.52;9.02;;;;;;;;;;5260245;28;20362;-70
2022/05/05 03:50:04;;;;;;;13.02;9.00;;;;;;;;;;5260383;28;20047;-70
2022/05/05 03:52:35;;;;;;;12.73;9.20;;;;;;;;;;5259478;28;20260;-69
2022/05/05 03:55:07;;;;;;;14.35;9.50;;;;;;;;;;5260216;28;20044;-69
2022/05/05 03:57:38;;;;;;;15.82;8.95;;;;;;;;;;5259846;28;20069;-69
2022/05/05 04:00:09;;;;;;;14.65;10.00;;;;;;;;;;5259974;28;20024;-69
2022/05/05 04:02:40;;;;;;;13.85;8.73;;;;;;;;;;5260348;28;20025;-69
2022/05/05 04:05:11;;;;;;;12.35;8.75;;;;;;;;;;5259868;28;20083;-69
2022/05/05 04:07:43;;;;;;;11.23;8.02;;;;;;;;;;5259534;28;20107;-68
2022/05/05 04:10:14;;;;;;;14.68;8.98;;;;;;;;;;5260251;28;20794;-69
2022/05/05 04:12:45;;;;;;;12.43;8.80;;;;;;;;;;5259174;28;20259;-69
2022/05/05 04:15:16;;;;;;;18.75;9.52;;;;;;;;;;5259914;28;20268;-69
2022/05/05 04:17:47;;;;;;;15.35;9.32;;;;;;;;;;5259837;28;20291;-68
2022/05/05 04:20:18;;;;;;;14.88;9.52;;;;;;;;;;5258796;28;20797;-68
2022/05/05 04:22:49;;;;;;;13.90;9.77;;;;;;;;;;5260416;28;20023;-69
2022/05/05 04:25:21;;;;;;;13.30;9.52;;;;;;;;;;5259673;28;20582;-69
2022/05/05 04:27:52;;;;;;;15.27;8.93;;;;;;;;;;5259489;28;20120;-69
2022/05/05 04:30:23;;;;;;;14.25;10.32;;;;;;;;;;5259512;28;20028;-69
2022/05/05 04:32:54;;;;;;;13.30;8.82;;;;;;;;;;5259877;28;20025;-69
2022/05/05 04:35:26;;;;;;;13.45;10.02;;;;;;;;;;5259195;28;20043;-69
2022/05/05 04:37:57;;;;;;;21.15;9.88;;;;;;;;;;5260134;28;20291;-69
2022/05/05 04:40:29;;;;;;;15.15;10.13;;;;;;;;;;5258530;28;20039;-69
2022/05/05 04:43:00;;;;;;;14.07;9.85;;;;;;;;;;5262444;28;20029;-69
2022/05/05 04:45:31;;;;;;;13.18;9.82;;;;;;;;;;5263779;28;20112;-69
2022/05/05 04:48:02;;;;;;;12.85;9.43;;;;;;;;;;5262969;28;20353;-68
2022/05/05 04:50:33;;;;;;;12.48;9.75;;;;;;;;;;5263681;28;20275;-68
2022/05/05 04:53:05;;;;;;;16.58;10.40;;;;;;;;;;5263457;28;20401;-69
2022/05/05 04:55:36;;;;;;;13.52;9.70;;;;;;;;;;5262642;28;20271;-69
2022/05/05 04:58:07;;;;;;;10.85;8.68;;;;;;;;;;5263470;28;20099;-69
2022/05/05 05:00:39;;;;;;;15.57;10.27;;;;;;;;;;5263110;28;20294;-69
2022/05/05 05:03:32;;;;;;;12.98;9.35;;;;;;;;;;5262644;28;20059;-69
2022/05/05 05:06:02;;;;;;;14.73;9.27;;;;;;;;;;5263297;28;20104;-69
2022/05/05 05:08:34;;;;;;;15.43;9.45;;;;;;;;;;5262927;28;20158;-69
2022/05/05 05:11:05;;;;;;;14.00;9.60;;;;;;;;;;5263647;28;20009;-69
2022/05/05 05:13:36;;;;;;;17.05;9.93;;;;;;;;;;5263205;28;20051;-69
2022/05/05 05:16:07;;;;;;;12.55;8.82;;;;;;;;;;5262313;28;20040;-69
2022/05/05 05:18:39;;;;;;;15.00;9.13;;;;;;;;;;5263199;28;20025;-69
2022/05/05 05:21:10;;;;;;;15.02;9.25;;;;;;;;;;5263125;28;20373;-69
2022/05/05 05:23:41;;;;;;;13.15;8.95;;;;;;;;;;5262203;28;20029;-70
2022/05/05 05:26:13;;;;;;;11.73;8.82;;;;;;;;;;5262886;28;20300;-69
2022/05/05 05:28:44;;;;;;;14.88;8.52;;;;;;;;;;5262508;28;20268;-69
2022/05/05 05:31:21;;;;;;;12.25;8.75;;;;;;;;;;5262026;28;20025;-70
2022/05/05 05:33:52;;;;;;;14.13;9.20;;;;;;;;;;5263045;28;20271;-71
2022/05/05 05:36:23;;;;;;;11.82;8.95;;;;;;;;;;5261800;28;20092;-69
2022/05/05 05:38:54;;;;;;;14.68;8.73;;;;;;;;;;5262264;28;20742;-69
2022/05/05 05:41:26;;;;;;;16.40;9.45;;;;;;;;;;5261988;28;20349;-70
2022/05/05 05:43:57;;;;;;;14.82;9.27;;;;;;;;;;5261684;28;20275;-69
2022/05/05 05:46:28;;;;;;;18.58;9.90;;;;;;;;;;5261825;28;20028;-69
2022/05/05 05:48:59;;;;;;;16.92;9.23;;;;;;;;;;5262666;28;20703;-69
2022/05/05 05:51:30;;;;;;;22.17;8.98;;;;;;;;;;5261028;28;20024;-69
2022/05/05 05:54:02;;;;;;;15.23;8.88;;;;;;;;;;5260967;28;20280;-68
2022/05/05 05:56:33;;;;;;;16.63;9.70;;;;;;;;;;5262201;28;20550;-69
2022/05/05 05:59:04;;;;;;;24.35;9.02;;;;;;;;;;5261076;28;20021;-70
2022/05/05 06:04:27;;;;;;;32.05;10.88;;;;;;;;;;5261511;28;20084;-69
2022/05/05 06:06:58;;;;;;;32.83;11.57;;;;;;;;;;5262004;28;20052;-69
2022/05/05 06:09:29;;;;;;;28.08;11.32;;;;;;;;;;5261556;28;20009;-69
2022/05/05 06:12:03;;;;;;;23.15;11.43;;;;;;;;;;5261096;28;20040;-69
2022/05/05 06:14:34;;;;;;;26.33;11.60;;;;;;;;;;5261740;28;20272;-69
2022/05/05 06:17:06;;;;;;;22.75;10.88;;;;;;;;;;5261399;28;20047;-69
2022/05/05 06:19:38;;;;;;;21.88;11.70;;;;;;;;;;5260912;28;20454;-69
2022/05/05 06:22:09;;;;;;;20.67;11.07;;;;;;;;;;5261654;28;20040;-69
2022/05/05 06:24:41;;;;;;;16.40;11.02;;;;;;;;;;5261460;28;20047;-70
2022/05/05 06:27:12;;;;;;;21.98;11.38;;;;;;;;;;5260425;28;20021;-69
2022/05/05 06:29:44;;;;;;;21.42;11.57;;;;;;;;;;5261357;28;20349;-69
2022/05/05 06:32:17;;;;;;;18.13;11.23;;;;;;;;;;5260946;28;20017;-70
2022/05/05 06:34:48;;;;;;;16.27;9.98;;;;;;;;;;5260595;28;20264;-69
2022/05/05 06:37:19;;;;;;;19.48;11.48;;;;;;;;;;5260599;28;20374;-69
2022/05/05 06:39:51;;;;;;;18.83;9.75;;;;;;;;;;5261081;28;20021;-69
2022/05/05 06:42:22;;;;;;;17.67;10.27;;;;;;;;;;5260292;28;20016;-68
2022/05/05 06:44:53;;;;;;;17.00;10.80;;;;;;;;;;5261555;28;20092;-69
2022/05/05 06:47:25;;;;;;;17.47;10.60;;;;;;;;;;5270693;28;20028;-69
2022/05/05 06:49:56;;;;;;;23.45;13.02;;;;;;;;;;5281306;28;20308;-70
2022/05/05 06:52:27;;;;;;;20.08;13.40;;;;;;;;;;5281027;28;20426;-70
2022/05/05 06:55:00;;;;;;;22.10;14.90;;;;;;;;;;5280751;28;20008;-70
2022/05/05 06:57:31;;;;;;;19.20;14.05;;;;;;;;;;5281547;28;20043;-69
2022/05/05 07:00:03;;;;;;;24.48;17.15;;;;;;;;;;5281288;28;20103;-69
2022/05/05 07:02:34;;;;;;;25.23;15.48;;;;;;;;;;5280954;28;20035;-70
2022/05/05 07:05:24;;;;;;;32.35;19.83;;;;;;;;;;5281262;28;20017;-70
2022/05/05 07:07:55;;;;;;;28.75;18.58;;;;;;;;;;5281344;28;20078;-69
2022/05/05 07:13:16;;;;;;;35.65;25.60;;;;;;;;;;5280902;28;20076;-71
2022/05/05 07:15:48;;;;;;;32.42;22.83;;;;;;;;;;5280814;28;20036;-70
2022/05/05 07:18:19;;;;;;;36.80;22.85;;;;;;;;;;5280936;28;20081;-70
2022/05/05 07:20:50;;;;;;;36.17;24.23;;;;;;;;;;5281583;28;20050;-69
2022/05/05 07:23:21;;;;;;;37.63;25.00;;;;;;;;;;5280059;28;20273;-70
2022/05/05 07:25:52;;;;;;;38.22;25.55;;;;;;;;;;5281409;28;20030;-69
2022/05/05 07:28:23;;;;;;;40.53;28.00;;;;;;;;;;5280732;28;20275;-69
2022/05/05 07:30:55;;;;;;;43.58;30.23;;;;;;;;;;5280931;28;20308;-69
2022/05/05 07:33:26;;;;;;;48.45;31.48;;;;;;;;;;5280781;28;20032;-70
2022/05/05 07:35:57;;;;;;;41.83;27.65;;;;;;;;;;5280992;28;20030;-70
2022/05/05 07:38:28;;;;;;;41.53;29.75;;;;;;;;;;5280382;28;20486;-70
2022/05/05 07:40:59;;;;;;;47.60;29.45;;;;;;;;;;5281425;28;20614;-70
2022/05/05 07:43:31;;;;;;;44.20;30.57;;;;;;;;;;5280253;28;20271;-71
2022/05/05 07:46:02;;;;;;;46.33;30.25;;;;;;;;;;5280984;28;20258;-70
2022/05/05 07:48:33;;;;;;;42.83;30.85;;;;;;;;;;5280649;28;20080;-70
2022/05/05 07:51:04;;;;;;;42.92;30.10;;;;;;;;;;5280094;28;20266;-71
2022/05/05 07:53:35;;;;;;;43.63;30.05;;;;;;;;;;5280814;28;20016;-71
2022/05/05 07:56:07;;;;;;;37.30;26.97;;;;;;;;;;5280471;28;20071;-70
2022/05/05 07:58:38;;;;;;;37.40;25.70;;;;;;;;;;5280176;28;20622;-70
2022/05/05 08:01:10;;;;;;;36.85;27.38;;;;;;;;;;5280357;28;20267;-70
2022/05/05 08:03:41;;;;;;;40.28;28.15;;;;;;;;;;5280466;28;20040;-71
2022/05/05 08:06:12;;;;;;;38.03;26.52;;;;;;;;;;5279987;28;20097;-70
2022/05/05 08:08:44;;;;;;;39.40;27.40;;;;;;;;;;5280624;28;20040;-69
2022/05/05 08:11:15;;;;;;;35.63;26.33;;;;;;;;;;5280497;28;20016;-69
2022/05/05 08:13:46;;;;;;;39.35;29.08;;;;;;;;;;5279798;28;20079;-72
2022/05/05 08:16:17;;;;;;;44.53;28.52;;;;;;;;;;5275946;28;20065;-68
2022/05/05 08:18:49;;;;;;;42.30;27.77;;;;;;;;;;5282802;28;20032;-69
2022/05/05 08:21:20;;;;;;;48.00;31.25;;;;;;;;;;5284071;28;20532;-69
2022/05/05 08:28:27;;;;;;;45.70;31.05;;;;;;;;;;5284568;28;20037;-68
2022/05/05 08:29:35;;;;;;;47.13;32.45;;;;;;;;;;5284023;28;20028;-70
2022/05/05 08:32:06;;;;;;;50.15;31.77;;;;;;;;;;5283934;28;20444;-70
2022/05/05 08:34:38;;;;;;;48.88;33.55;;;;;;;;;;5283345;28;20270;-70
2022/05/05 08:37:09;;;;;;;42.58;30.48;;;;;;;;;;5284079;28;20383;-69
2022/05/05 08:39:40;;;;;;;43.90;31.02;;;;;;;;;;5282826;28;20124;-71
2022/05/05 08:42:11;;;;;;;43.57;30.60;;;;;;;;;;5283917;28;20103;-69
2022/05/05 08:44:42;;;;;;;41.08;30.70;;;;;;;;;;5283794;28;20270;-69
2022/05/05 08:47:16;;;;;;;46.88;32.72;;;;;;;;;;5283000;28;20023;-68
2022/05/05 08:49:47;;;;;;;48.85;33.17;;;;;;;;;;5284063;28;20353;-69
2022/05/05 08:52:21;;;;;;;43.35;32.13;;;;;;;;;;5283570;28;20548;-70
2022/05/05 08:54:52;;;;;;;43.88;29.88;;;;;;;;;;5279936;28;20318;-69
2022/05/05 08:57:23;;;;;;;47.78;30.90;;;;;;;;;;5283057;28;20060;-70
2022/05/05 08:59:55;;;;;;;43.53;31.33;;;;;;;;;;5283707;28;20259;-68
2022/05/05 09:02:27;;;;;;;39.65;30.63;;;;;;;;;;5282716;28;20391;-69
2022/05/05 09:04:58;;;;;;;47.97;32.38;;;;;;;;;;5284178;28;20149;-69
2022/05/05 09:07:49;;;;;;;44.50;31.05;;;;;;;;;;5282789;28;20105;-69
2022/05/05 09:10:20;;;;;;;44.00;32.20;;;;;;;;;;5283462;28;20502;-70
2022/05/05 09:13:01;;;;;;;42.78;29.75;;;;;;;;;;5283964;28;20048;-70
2022/05/05 09:15:33;;;;;;;43.05;30.27;;;;;;;;;;5282802;28;20065;-69
2022/05/05 09:18:18;;;;;;;41.20;29.58;;;;;;;;;;5283480;28;20109;-69
2022/05/05 09:20:49;;;;;;;41.03;28.48;;;;;;;;;;5284021;28;20017;-70
2022/05/05 09:23:36;;;;;;;44.88;30.58;;;;;;;;;;5282698;28;20031;-70
2022/05/05 09:26:10;;;;;;;41.38;31.48;;;;;;;;;;5283193;28;20074;-69
2022/05/05 09:28:41;;;;;;;40.42;30.58;;;;;;;;;;5281821;28;20043;-69
2022/05/05 09:31:12;;;;;;;42.80;30.17;;;;;;;;;;5283313;28;20032;-69
2022/05/05 09:33:44;;;;;;;54.93;30.23;;;;;;;;;;5283618;28;20020;-69
2022/05/05 09:36:16;;;;;;;45.67;29.95;;;;;;;;;;5282877;28;20354;-69
2022/05/05 09:38:47;;;;;;;38.63;29.80;;;;;;;;;;5283631;28;20035;-69
2022/05/05 09:41:28;;;;;;;45.63;31.25;;;;;;;;;;5282905;28;20020;-69
2022/05/05 09:44:10;;;;;;;40.42;28.80;;;;;;;;;;5283443;28;20029;-69
2022/05/05 09:46:52;;;;;;;42.03;29.83;;;;;;;;;;5283498;28;20020;-69
2022/05/05 09:49:35;;;;;;;42.65;30.27;;;;;;;;;;5283115;28;20064;-70
2022/05/05 09:58:34;;;;;;;43.70;31.23;;;;;;;;;;5282809;28;20044;-69
2022/05/05 10:01:13;;;;;;;43.50;31.23;;;;;;;;;;5275227;28;20028;-69
2022/05/05 10:04:01;;;;;;;46.47;31.65;;;;;;;;;;5282896;28;20033;-68
2022/05/05 10:06:34;;;;;;;38.88;31.92;;;;;;;;;;5283335;28;20069;-68
2022/05/05 10:09:09;;;;;;;45.42;30.60;;;;;;;;;;5283026;28;20111;-68
2022/05/05 10:11:40;;;;;;;38.75;29.48;;;;;;;;;;5282304;28;20025;-68
2022/05/05 10:14:13;;;;;;;37.58;30.02;;;;;;;;;;5282421;28;20154;-69
2022/05/05 10:16:44;;;;;;;44.00;31.10;;;;;;;;;;5282079;28;20080;-68
2022/05/05 10:19:16;;;;;;;41.95;31.90;;;;;;;;;;5281833;28;20405;-68
2022/05/05 10:22:05;;;;;;;43.08;31.75;;;;;;;;;;5282673;28;20024;-68
2022/05/05 10:24:42;;;;;;;42.05;31.55;;;;;;;;;;5282260;28;20017;-69
2022/05/05 10:27:16;;;;;;;40.38;30.90;;;;;;;;;;5281732;28;20154;-68
2022/05/05 10:29:47;;;;;;;38.10;28.88;;;;;;;;;;5282388;28;20432;-68
2022/05/05 10:32:24;;;;;;;42.40;33.00;;;;;;;;;;5281366;28;20103;-68
2022/05/05 10:35:01;;;;;;;41.22;33.08;;;;;;;;;;5281929;28;20024;-68
2022/05/05 10:37:34;;;;;;;40.47;31.25;;;;;;;;;;5281592;28;20116;-67
2022/05/05 10:40:06;;;;;;;47.05;32.17;;;;;;;;;;5281236;28;20066;-66
2022/05/05 10:42:40;;;;;;;39.10;30.42;;;;;;;;;;5282153;28;20044;-67
2022/05/05 10:45:12;;;;;;;43.30;30.90;;;;;;;;;;5281735;28;20024;-67
2022/05/05 10:47:46;;;;;;;37.28;29.48;;;;;;;;;;5281406;28;20024;-69
2022/05/05 10:50:31;;;;;;;41.33;28.08;;;;;;;;;;5282138;28;20452;-68
2022/05/05 10:53:02;;;;;;;41.70;30.38;;;;;;;;;;5281757;28;20025;-68
2022/05/05 10:55:41;;;;;;;38.67;28.80;;;;;;;;;;5281319;28;20055;-68
2022/05/05 10:58:32;;;;;;;36.47;26.20;;;;;;;;;;5281607;28;20135;-68
2022/05/05 11:01:08;;;;;;;36.13;28.27;;;;;;;;;;5281021;28;20030;-68
2022/05/05 11:03:59;;;;;;;33.10;25.98;;;;;;;;;;5281863;28;20039;-70
2022/05/05 11:06:32;;;;;;;34.15;25.88;;;;;;;;;;5280810;28;20076;-68
2022/05/05 11:09:04;;;;;;;33.42;26.25;;;;;;;;;;5273147;28;20029;-67
2022/05/05 11:11:41;;;;;;;37.35;27.50;;;;;;;;;;5279310;28;20014;-68
2022/05/05 11:23:09;;;;;;;35.08;24.52;;;;;;;;;;5280470;28;20373;-66
2022/05/05 11:25:41;;;;;;;32.85;26.52;;;;;;;;;;5281100;28;20017;-66
2022/05/05 11:28:14;;;;;;;33.17;26.00;;;;;;;;;;5280608;28;20073;-67
2022/05/05 11:30:45;;;;;;;36.67;27.92;;;;;;;;;;5280088;28;20017;-67
2022/05/05 11:33:17;;;;;;;36.47;26.83;;;;;;;;;;5280136;28;20430;-67
2022/05/05 11:35:56;;;;;;;33.55;25.65;;;;;;;;;;5279961;28;20041;-67
2022/05/05 11:38:28;;;;;;;31.52;25.83;;;;;;;;;;5280673;28;20027;-68
2022/05/05 11:41:03;;;;;;;32.00;25.95;;;;;;;;;;5281039;28;20017;-68
2022/05/05 11:46:24;;;;;;;34.10;25.00;;;;;;;;;;5279859;28;20024;-68
2022/05/05 11:48:56;;;;;;;33.40;25.50;;;;;;;;;;5279873;28;20297;-67
2022/05/05 11:51:31;;;;;;;33.33;22.58;;;;;;;;;;5278756;28;20456;-68
2022/05/05 11:54:07;;;;;;;26.58;20.40;;;;;;;;;;5280682;28;20042;-68
2022/05/05 11:56:49;;;;;;;27.40;22.48;;;;;;;;;;5279534;28;20043;-68
2022/05/05 12:02:15;;;;;;;27.73;24.23;;;;;;;;;;5281083;28;20028;-69
2022/05/05 12:04:50;;;;;;;32.85;23.70;;;;;;;;;;5280158;28;20471;-70
2022/05/05 12:07:22;;;;;;;30.17;21.83;;;;;;;;;;5280706;28;20126;-70
2022/05/05 12:09:55;;;;;;;26.55;23.63;;;;;;;;;;5281072;28;20100;-69
2022/05/05 12:12:27;;;;;;;30.95;22.73;;;;;;;;;;5280130;28;20024;-69
2022/05/05 12:14:59;;;;;;;26.88;23.17;;;;;;;;;;5280826;28;20365;-69
2022/05/05 12:17:40;;;;;;;31.70;23.95;;;;;;;;;;5280151;28;20110;-69
2022/05/05 12:20:15;;;;;;;31.70;25.23;;;;;;;;;;5281084;28;20035;-69
2022/05/05 12:22:59;;;;;;;30.55;24.08;;;;;;;;;;5280686;28;20029;-69
2022/05/05 12:25:30;;;;;;;33.13;25.17;;;;;;;;;;5280162;28;20028;-70
2022/05/05 12:28:03;;;;;;;35.30;26.10;;;;;;;;;;5281050;28;20460;-70
2022/05/05 12:30:42;;;;;;;33.33;23.88;;;;;;;;;;5280668;28;20271;-69
2022/05/05 12:33:15;;;;;;;30.70;23.92;;;;;;;;;;5280406;28;20035;-70
2022/05/05 12:35:47;;;;;;;31.30;22.80;;;;;;;;;;5280873;28;20479;-70
2022/05/05 12:38:19;;;;;;;28.52;21.55;;;;;;;;;;5280039;28;20477;-69
2022/05/05 12:41:04;;;;;;;25.50;22.08;;;;;;;;;;5280437;28;20013;-69
2022/05/05 12:43:36;;;;;;;25.98;21.40;;;;;;;;;;5280863;28;20013;-69
2022/05/05 12:46:07;;;;;;;27.50;20.98;;;;;;;;;;5279926;28;20013;-69
2022/05/05 12:48:41;;;;;;;29.13;20.42;;;;;;;;;;5280670;28;20088;-70
2022/05/05 12:51:16;;;;;;;26.27;22.05;;;;;;;;;;5280301;28;20044;-69
2022/05/05 12:59:37;;;;;;;25.23;19.75;;;;;;;;;;5279885;28;20471;-70
2022/05/05 13:02:08;;;;;;;25.90;19.42;;;;;;;;;;5280362;28;20019;-70
2022/05/05 13:04:39;;;;;;;22.90;18.67;;;;;;;;;;5284129;28;20024;-69
2022/05/05 13:07:10;;;;;;;25.65;19.15;;;;;;;;;;5283592;28;20354;-70
2022/05/05 13:09:42;;;;;;;23.58;21.05;;;;;;;;;;5284205;28;20115;-70
2022/05/05 13:12:13;;;;;;;26.10;20.67;;;;;;;;;;5284067;28;20460;-70
2022/05/05 13:14:44;;;;;;;23.67;21.23;;;;;;;;;;5283488;28;20059;-70
2022/05/05 13:17:18;;;;;;;28.77;21.33;;;;;;;;;;5284020;28;20029;-70
2022/05/05 13:19:49;;;;;;;30.73;23.40;;;;;;;;;;5280579;28;20016;-69
2022/05/05 13:22:21;;;;;;;29.70;24.08;;;;;;;;;;5282233;28;20518;-70
2022/05/05 13:24:52;;;;;;;26.63;21.70;;;;;;;;;;5284275;28;20016;-69
2022/05/05 13:27:23;;;;;;;26.43;20.93;;;;;;;;;;5282842;28;20021;-69
2022/05/05 13:29:55;;;;;;;24.65;20.92;;;;;;;;;;5283146;28;20342;-70
2022/05/05 13:32:26;;;;;;;30.08;21.38;;;;;;;;;;5283070;28;20021;-69
2022/05/05 13:34:57;;;;;;;34.85;22.50;;;;;;;;;;5283384;28;20019;-68
2022/05/05 13:37:28;;;;;;;26.30;22.47;;;;;;;;;;5282766;28;20075;-68
2022/05/05 13:39:59;;;;;;;28.05;21.98;;;;;;;;;;5283284;28;20271;-70
2022/05/05 13:42:30;;;;;;;28.38;23.38;;;;;;;;;;5281588;28;20070;-68
2022/05/05 13:45:02;;;;;;;29.07;23.33;;;;;;;;;;5282518;28;20021;-69
2022/05/05 13:47:33;;;;;;;27.85;22.88;;;;;;;;;;5282444;28;20283;-68
2022/05/05 13:50:04;;;;;;;35.83;25.77;;;;;;;;;;5282383;28;20012;-69
2022/05/05 13:52:37;;;;;;;29.42;23.95;;;;;;;;;;5283377;28;20494;-68
2022/05/05 13:55:08;;;;;;;30.10;23.42;;;;;;;;;;5282218;28;20424;-68
2022/05/05 13:57:40;;;;;;;27.80;23.25;;;;;;;;;;5281925;28;20063;-68
2022/05/05 14:00:13;;;;;;;26.83;23.10;;;;;;;;;;5283216;28;20020;-68
2022/05/05 14:02:44;;;;;;;35.00;25.58;;;;;;;;;;5282531;28;20037;-68
2022/05/05 14:05:15;;;;;;;34.72;25.00;;;;;;;;;;5282205;28;20009;-68
2022/05/05 14:13:26;;;;;;;28.38;24.40;;;;;;;;;;5281646;28;20148;-68
2022/05/05 14:15:57;;;;;;;29.60;24.20;;;;;;;;;;5281715;28;20456;-69
2022/05/05 14:18:28;;;;;;;30.87;23.90;;;;;;;;;;5281823;28;20032;-68
2022/05/05 14:21:00;;;;;;;30.30;24.60;;;;;;;;;;5282767;28;20602;-68
2022/05/05 14:23:31;;;;;;;34.00;23.92;;;;;;;;;;5282225;28;20055;-68
2022/05/05 14:26:02;;;;;;;28.50;24.43;;;;;;;;;;5281915;28;20032;-67
2022/05/05 14:28:33;;;;;;;25.55;22.77;;;;;;;;;;5282136;28;20755;-68
2022/05/05 14:31:04;;;;;;;27.50;23.17;;;;;;;;;;5281909;28;20324;-69
2022/05/05 14:33:36;;;;;;;30.00;23.23;;;;;;;;;;5281563;28;20320;-68
2022/05/05 14:36:07;;;;;;;27.03;21.80;;;;;;;;;;5281702;28;20031;-68
2022/05/05 14:38:38;;;;;;;29.53;23.00;;;;;;;;;;5281264;28;20287;-69
2022/05/05 14:41:09;;;;;;;29.17;23.98;;;;;;;;;;5281763;28;20333;-68
2022/05/05 14:43:40;;;;;;;24.58;21.23;;;;;;;;;;5281878;28;20024;-68
2022/05/05 14:46:12;;;;;;;24.90;20.90;;;;;;;;;;5281629;28;20114;-69
2022/05/05 14:48:43;;;;;;;22.40;19.75;;;;;;;;;;5282067;28;20016;-68
2022/05/05 14:51:14;;;;;;;19.90;17.73;;;;;;;;;;5281792;28;20113;-69
2022/05/05 14:53:45;;;;;;;21.13;18.02;;;;;;;;;;5281201;28;20053;-68
2022/05/05 14:56:17;;;;;;;21.77;19.02;;;;;;;;;;5281844;28;20089;-69
2022/05/05 14:58:49;;;;;;;21.73;19.53;;;;;;;;;;5281484;28;20020;-68
2022/05/05 15:01:21;;;;;;;21.63;18.70;;;;;;;;;;5280708;28;20353;-69
2022/05/05 15:03:52;;;;;;;22.88;19.13;;;;;;;;;;5281904;28;20020;-67
2022/05/05 15:06:23;;;;;;;20.05;17.95;;;;;;;;;;5280684;28;20012;-68
2022/05/05 15:08:55;;;;;;;27.40;18.08;;;;;;;;;;5281899;28;20082;-68
2022/05/05 15:11:26;;;;;;;22.00;18.50;;;;;;;;;;5280953;28;20024;-68
2022/05/05 15:14:03;;;;;;;25.60;19.90;;;;;;;;;;5281041;28;20048;-68
2022/05/05 15:16:34;;;;;;;21.35;18.42;;;;;;;;;;5281101;28;20277;-68
2022/05/05 15:19:05;;;;;;;47.67;16.45;;;;;;;;;;5281363;28;20024;-69
2022/05/05 15:21:36;;;;;;;22.50;17.50;;;;;;;;;;5280527;28;20025;-68
2022/05/05 15:24:08;;;;;;;27.88;18.35;;;;;;;;;;5281279;28;20279;-68
2022/05/05 15:26:39;;;;;;;21.02;16.80;;;;;;;;;;5280932;28;20013;-68
2022/05/05 15:29:10;;;;;;;22.77;20.23;;;;;;;;;;5280387;28;20063;-68
2022/05/05 15:31:42;;;;;;;26.45;18.25;;;;;;;;;;5281133;28;20013;-68
2022/05/05 15:34:13;;;;;;;35.83;18.88;;;;;;;;;;5280675;28;20013;-68
2022/05/05 15:36:44;;;;;;;19.85;16.42;;;;;;;;;;5280213;28;20031;-68
2022/05/05 15:39:16;;;;;;;20.70;17.33;;;;;;;;;;5280715;28;20028;-68
2022/05/05 15:41:47;;;;;;;24.75;17.85;;;;;;;;;;5280407;28;20523;-67
2022/05/05 15:44:18;;;;;;;25.47;16.07;;;;;;;;;;5280599;28;20017;-68